Thunderstorms From: 22-05-2018 15:00 Until: 23-05-2018 15:00 warning for: Thunderstorms Level: Yellow info button

Although rather usual in this region, locally or potentially dangerous phenomena are expected. (such as local winds, summer thunderstorms, rising streams or high waves) Be aware and pay attention to the latest weather updates, especially if you carry out activities exposed to weather or close to a stream or shoreline. 


Meteo18 Weather Cam more information Meteo18 Weather Cam


warning for Thunderstorms more information blitzortung!


Rain radar more information rain snow radar


Visit our other weather sites:

Template documentation
and downloads

And another site



Weather Underground History page Text

Daily Summary for November 9, 2017 Units:  Metric    English   Both
« Previous Day
Next Day »
Daily Weekly Monthly Yearly Custom
  High: Low: Average:
Temperature: -17.8 °C -15.4 °C -14.3 °C
Dew Point: -17.8 °C -15.9 °C -15.3 °C
Humidity: Humidity % 78 % 88 %
Wind Speed: 0 km/h 0 km/h 1.4 km/h
Wind Gust: 0 km/h - -
Wind:- - SSW
Pressure: 0 hPa 34635.4 hPa -
Precipitation: 0 mm    
Historical Graphs
 
 
Tabular Data for November 9, 2017
Time Temperature Dew Point Pressure Wind Wind Speed Wind Gust Humidity Rainfall Rate (Hourly)
-17.8 °C -17.8 °C 0 hPa Calm     Humidity % 0 mm
00:02 -14.8 °C -15.3 °C 34635.4 hPa Calm   2.6 km/h 94 % 0 mm
00:07 -14.8 °C -15.3 °C 34645.6 hPa NE 2.6 km/h 5.1 km/h 94 % 0 mm
00:12 -14.8 °C -15.2 °C 34645.6 hPa Calm   7.7 km/h 95 % 0 mm
00:17 -14.8 °C -15.2 °C 34635.4 hPa Calm   7.7 km/h 95 % 0 mm
00:22 -14.8 °C -15.2 °C 34635.4 hPa North 2.6 km/h 10.3 km/h 95 % 0 mm
00:32 -14.8 °C -15.2 °C 34635.4 hPa Calm   10.3 km/h 95 % 0 mm
00:42 -14.9 °C -15.3 °C 34635.4 hPa Calm   2.6 km/h 95 % 0 mm
00:47 -14.9 °C -15.3 °C 34635.4 hPa Calm   2.6 km/h 95 % 0 mm
00:52 -14.9 °C -15.3 °C 34645.6 hPa Calm   2.6 km/h 95 % 0 mm
01:02 -14.9 °C -15.3 °C 34645.6 hPa Calm   7.7 km/h 95 % 0 mm
01:07 -14.9 °C -15.3 °C 34645.6 hPa North 2.6 km/h 7.7 km/h 95 % 0 mm
01:12 -14.9 °C -15.3 °C 34645.6 hPa Calm   7.7 km/h 95 % 0 mm
01:17 -14.9 °C -15.3 °C 34645.6 hPa Calm   5.1 km/h 95 % 0 mm
01:22 -14.9 °C -15.3 °C 34645.6 hPa Calm   5.1 km/h 95 % 0 mm
01:27 -14.9 °C -15.3 °C 34645.6 hPa Calm   5.1 km/h 95 % 0 mm
01:32 -14.9 °C -15.3 °C 34645.6 hPa Calm   2.6 km/h 95 % 0 mm
01:37 -15 °C -15.4 °C 34645.6 hPa Calm   2.6 km/h 95 % 0 mm
01:42 -15 °C -15.4 °C 34645.6 hPa Calm   2.6 km/h 95 % 0 mm
01:47 -15.1 °C -15.4 °C 34645.6 hPa Calm   2.6 km/h 95 % 0 mm
01:52 -15.1 °C -15.4 °C 34645.6 hPa Calm   2.6 km/h 95 % 0 mm
01:57 -15.1 °C -15.4 °C 34645.6 hPa Calm   2.6 km/h 95 % 0 mm
02:02 -15.1 °C -15.4 °C 34645.6 hPa Calm   2.6 km/h 95 % 0 mm
02:07 -15.1 °C -15.5 °C 34645.6 hPa Calm   2.6 km/h 95 % 0 mm
02:12 -15.1 °C -15.5 °C 34645.6 hPa North 2.6 km/h 5.1 km/h 95 % 0 mm
02:17 -15.1 °C -15.5 °C 34645.6 hPa NW 5.1 km/h 5.1 km/h 95 % 0 mm
02:22 -15.1 °C -15.5 °C 34645.6 hPa NW 2.6 km/h 5.1 km/h 95 % 0 mm
02:27 -15.1 °C -15.5 °C 34659.1 hPa Calm   5.1 km/h 95 % 0 mm
02:32 -15.1 °C -15.6 °C 34659.1 hPa Calm   5.1 km/h 94 % 0 mm
02:37 -15.2 °C -15.7 °C 34659.1 hPa Calm   5.1 km/h 94 % 0 mm
02:42 -15.2 °C -15.7 °C 34659.1 hPa Calm   5.1 km/h 94 % 0 mm
02:47 -15.1 °C -15.6 °C 34659.1 hPa Calm   5.1 km/h 94 % 0 mm
02:52 -15.1 °C -15.6 °C 34659.1 hPa Calm   2.6 km/h 94 % 0 mm
02:57 -15.1 °C -15.6 °C 34659.1 hPa Calm   2.6 km/h 94 % 0 mm
03:02 -15.1 °C -15.6 °C 34659.1 hPa Calm   2.6 km/h 94 % 0 mm
03:07 -15.4 °C -15.9 °C 34645.6 hPa Calm   2.6 km/h 94 % 0 mm
03:12 -15.4 °C -15.9 °C 34645.6 hPa Calm   2.6 km/h 94 % 0 mm
03:17 -15.4 °C -15.9 °C 34645.6 hPa Calm   2.6 km/h 94 % 0 mm
08:57 -15.2 °C -15.9 °C 34750.5 hPa NW 2.6 km/h -2586.8 km/h 91 % 0 mm
09:02 -15.2 °C -15.9 °C 34750.5 hPa NNE 2.6 km/h 10.3 km/h 91 % 0 mm
09:12 -15.1 °C -15.8 °C 34760.7 hPa NNW 5.1 km/h 10.3 km/h 91 % 0 mm
09:17 -15.1 °C -15.8 °C 34760.7 hPa Calm   12.9 km/h 91 % 0 mm
09:22 -15.1 °C -15.8 °C 34760.7 hPa Calm   12.9 km/h 91 % 0 mm
09:32 -15.1 °C -15.8 °C 34760.7 hPa Calm   7.7 km/h 91 % 0 mm
09:37 -15.1 °C -15.8 °C 34760.7 hPa NE 10.3 km/h 10.3 km/h 91 % 0 mm
09:42 -15 °C -15.8 °C 34760.7 hPa Calm   12.9 km/h 90 % 0 mm
09:47 -15 °C -15.8 °C 34760.7 hPa NNE 10.3 km/h 12.9 km/h 90 % 0 mm
09:52 -14.9 °C -15.8 °C 34760.7 hPa NNE 5.1 km/h 15.6 km/h 90 % 0 mm
09:57 -14.9 °C -15.8 °C 34760.7 hPa NNE 2.6 km/h 15.6 km/h 90 % 0 mm
10:07 -14.9 °C -15.9 °C 34774.2 hPa NNE 5.1 km/h 10.3 km/h 89 % 0 mm
10:12 -14.9 °C -15.9 °C 34760.7 hPa North 5.1 km/h 10.3 km/h 89 % 0 mm
10:17 -14.9 °C -15.8 °C 34760.7 hPa NNW 5.1 km/h 12.9 km/h 89 % 0 mm
10:22 -14.9 °C -15.8 °C 34774.2 hPa NNW 5.1 km/h 12.9 km/h 89 % 0 mm
10:32 -14.8 °C -15.8 °C 34774.2 hPa NE 5.1 km/h 12.9 km/h 88 % 0 mm
10:42 -14.8 °C -15.8 °C 34760.7 hPa ENE 5.1 km/h 7.7 km/h 88 % 0 mm
10:47 -14.8 °C -15.8 °C 34760.7 hPa NNE 5.1 km/h 7.7 km/h 88 % 0 mm
10:57 -14.7 °C -15.7 °C 34760.7 hPa NE 2.6 km/h 7.7 km/h 88 % 0 mm
11:02 -14.7 °C -15.7 °C 34774.2 hPa Calm   7.7 km/h 88 % 0 mm
11:12 -14.6 °C -15.6 °C 34774.2 hPa Calm   5.1 km/h 88 % 0 mm
11:17 -14.6 °C -15.7 °C 34774.2 hPa Calm   5.1 km/h 87 % 0 mm
11:22 -14.6 °C -15.7 °C 34774.2 hPa Calm   2.6 km/h 87 % 0 mm
11:27 -14.5 °C -15.6 °C 34774.2 hPa Calm   2.6 km/h 87 % 0 mm
11:32 -14.5 °C -15.7 °C 34774.2 hPa Calm   2.6 km/h 86 % 0 mm
11:37 -14.4 °C -15.7 °C 34774.2 hPa Calm   2.6 km/h 86 % 0 mm
11:42 -14.4 °C -15.6 °C 34774.2 hPa Calm   2.6 km/h 86 % 0 mm
11:47 -14.3 °C -15.6 °C 34774.2 hPa Calm   2.6 km/h 86 % 0 mm
11:52 -14.3 °C -15.6 °C 34774.2 hPa Calm   2.6 km/h 85 % 0 mm
11:57 -14.4 °C -15.7 °C 34774.2 hPa Calm   5.1 km/h 85 % 0 mm
12:02 -14.3 °C -15.6 °C 34774.2 hPa Calm   5.1 km/h 86 % 0 mm
12:07 -14.3 °C -15.6 °C 34774.2 hPa Calm   5.1 km/h 85 % 0 mm
12:12 -14.3 °C -15.6 °C 34774.2 hPa Calm   5.1 km/h 85 % 0 mm
12:17 -14.2 °C -15.4 °C 34774.2 hPa Calm   2.6 km/h 85 % 0 mm
12:22 -14.2 °C -15.6 °C 34774.2 hPa Calm   2.6 km/h 84 % 0 mm
12:32 -14 °C -15.5 °C 34760.7 hPa NNW 2.6 km/h 2.6 km/h 83 % 0 mm
12:42 -14 °C -15.5 °C 34760.7 hPa Calm   5.1 km/h 83 % 0 mm
12:47 -14.1 °C -15.6 °C 34760.7 hPa NE 2.6 km/h 5.1 km/h 83 % 0 mm
12:52 -14 °C -15.5 °C 34760.7 hPa NNE 2.6 km/h 5.1 km/h 83 % 0 mm
12:57 -14 °C -15.5 °C 34760.7 hPa Calm   5.1 km/h 83 % 0 mm
13:02 -14 °C -15.5 °C 34760.7 hPa Calm   5.1 km/h 83 % 0 mm
13:07 -13.9 °C -15.4 °C 34760.7 hPa Calm   5.1 km/h 83 % 0 mm
13:12 -13.9 °C -15.4 °C 34760.7 hPa Calm   5.1 km/h 83 % 0 mm
13:17 -13.8 °C -15.3 °C 34760.7 hPa Calm   2.6 km/h 83 % 0 mm
13:22 -13.8 °C -15.4 °C 34750.5 hPa Calm   2.6 km/h 82 % 0 mm
13:27 -13.8 °C -15.4 °C 34750.5 hPa Calm   2.6 km/h 82 % 0 mm
13:32 -13.9 °C -15.4 °C 34750.5 hPa Calm   2.6 km/h 83 % 0 mm
13:37 -13.8 °C -15.4 °C 34750.5 hPa Calm   2.6 km/h 82 % 0 mm
13:42 -13.8 °C -15.4 °C 34750.5 hPa Calm     82 % 0 mm
13:47 -13.8 °C -15.3 °C 34750.5 hPa Calm     83 % 0 mm
13:52 -13.9 °C -15.5 °C 34750.5 hPa Calm   5.1 km/h 82 % 0 mm
13:57 -13.9 °C -15.4 °C 34750.5 hPa Calm   5.1 km/h 83 % 0 mm
14:02 -13.8 °C -15.3 °C 34750.5 hPa Calm   5.1 km/h 83 % 0 mm
14:07 -13.8 °C -15.3 °C 34760.7 hPa Calm   5.1 km/h 83 % 0 mm
14:12 -13.8 °C -15.2 °C 34760.7 hPa NNE 2.6 km/h 5.1 km/h 84 % 0 mm
14:17 -13.8 °C -15.2 °C 34750.5 hPa Calm   5.1 km/h 84 % 0 mm
14:22 -13.8 °C -15.2 °C 34750.5 hPa Calm   2.6 km/h 84 % 0 mm
14:27 -13.8 °C -15.2 °C 34760.7 hPa Calm   2.6 km/h 84 % 0 mm
14:32 -13.7 °C -15.1 °C 34750.5 hPa Calm   2.6 km/h 84 % 0 mm
14:37 -13.7 °C -15.1 °C 34760.7 hPa Calm   5.1 km/h 84 % 0 mm
14:42 -13.7 °C -15.2 °C 34750.5 hPa NNW 5.1 km/h 5.1 km/h 83 % 0 mm
14:47 -13.7 °C -15.2 °C 34750.5 hPa NW 2.6 km/h 7.7 km/h 83 % 0 mm
14:52 -13.7 °C -15.2 °C 34750.5 hPa Calm   7.7 km/h 83 % 0 mm
14:57 -13.7 °C -15.3 °C 34750.5 hPa Calm   7.7 km/h 82 % 0 mm
15:02 -13.6 °C -15.3 °C 34750.5 hPa Calm   5.1 km/h 81 % 0 mm
15:07 -13.6 °C -15.3 °C 34750.5 hPa NW 2.6 km/h 7.7 km/h 81 % 0 mm
15:12 -13.6 °C -15.3 °C 34750.5 hPa Calm   10.3 km/h 80 % 0 mm
15:17 -13.6 °C -15.3 °C 34750.5 hPa Calm   10.3 km/h 80 % 0 mm
15:22 -13.6 °C -15.4 °C 34750.5 hPa North 2.6 km/h 10.3 km/h 79 % 0 mm
15:27 -13.6 °C -15.4 °C 34760.7 hPa North 2.6 km/h 7.7 km/h 79 % 0 mm
15:32 -13.5 °C -15.3 °C 34760.7 hPa NNW 2.6 km/h 7.7 km/h 80 % 0 mm
15:37 -13.5 °C -15.4 °C 34760.7 hPa Calm   7.7 km/h 79 % 0 mm
15:42 -13.4 °C -15.3 °C 34760.7 hPa West 2.6 km/h 7.7 km/h 79 % 0 mm
15:47 -13.4 °C -15.4 °C 34760.7 hPa Calm   10.3 km/h 78 % 0 mm
15:52 -13.4 °C -15.3 °C 34760.7 hPa Calm   12.9 km/h 79 % 0 mm
15:57 -13.4 °C -15.2 °C 34760.7 hPa Calm   12.9 km/h 80 % 0 mm
16:02 -13.4 °C -15.2 °C 34760.7 hPa WNW 2.6 km/h 5.1 km/h 80 % 0 mm
16:12 -13.4 °C -15.2 °C 34760.7 hPa NW 7.7 km/h 7.7 km/h 81 % 0 mm
16:17 -13.4 °C -15.2 °C 34760.7 hPa NW 5.1 km/h 7.7 km/h 81 % 0 mm
16:22 -13.5 °C -15.2 °C 34760.7 hPa Calm   10.3 km/h 81 % 0 mm
16:27 -13.5 °C -15.2 °C 34760.7 hPa NW 5.1 km/h 10.3 km/h 81 % 0 mm
16:32 -13.5 °C -15.2 °C 34774.2 hPa NNW 2.6 km/h 10.3 km/h 81 % 0 mm
16:37 -13.5 °C -15.2 °C 34774.2 hPa NW 2.6 km/h 10.3 km/h 81 % 0 mm
16:42 -13.5 °C -15.2 °C 34774.2 hPa Calm   7.7 km/h 81 % 0 mm
16:47 -13.5 °C -15.2 °C 34774.2 hPa Calm   7.7 km/h 81 % 0 mm
16:52 -13.6 °C -15.2 °C 34774.2 hPa Calm   5.1 km/h 82 % 0 mm
16:57 -13.6 °C -15.2 °C 34774.2 hPa Calm   2.6 km/h 82 % 0 mm
17:02 -13.6 °C -15.2 °C 34774.2 hPa Calm   2.6 km/h 82 % 0 mm
17:07 -13.6 °C -15.2 °C 34774.2 hPa Calm   2.6 km/h 82 % 0 mm
17:12 -13.6 °C -15.2 °C 34784.4 hPa Calm     82 % 0 mm
17:17 -13.6 °C -15.2 °C 34784.4 hPa Calm     82 % 0 mm
17:22 -13.6 °C -15.2 °C 34784.4 hPa Calm     82 % 0 mm
17:27 -13.7 °C -15.3 °C 34784.4 hPa Calm     82 % 0 mm
17:32 -13.7 °C -15.2 °C 34784.4 hPa Calm     83 % 0 mm
17:37 -13.7 °C -15.2 °C 34784.4 hPa Calm     83 % 0 mm
17:42 -13.7 °C -15.2 °C 34784.4 hPa Calm     83 % 0 mm
17:47 -13.7 °C -15.1 °C 34784.4 hPa Calm     84 % 0 mm
17:52 -13.7 °C -15.1 °C 34784.4 hPa Calm     84 % 0 mm
17:57 -13.8 °C -15.2 °C 34784.4 hPa Calm     84 % 0 mm
18:02 -13.8 °C -15.1 °C 34784.4 hPa Calm     85 % 0 mm
18:12 -13.8 °C -15.1 °C 34784.4 hPa Calm   5.1 km/h 86 % 0 mm
18:17 -13.9 °C -15.1 °C 34784.4 hPa Calm   5.1 km/h 87 % 0 mm
18:22 -13.9 °C -15.1 °C 34784.4 hPa Calm   2.6 km/h 87 % 0 mm
18:32 -14.1 °C -15.1 °C 34784.4 hPa Calm   5.1 km/h 88 % 0 mm
18:42 -14.1 °C -15 °C 34797.9 hPa SW 2.6 km/h 5.1 km/h 89 % 0 mm
18:47 -14.1 °C -15 °C 34797.9 hPa SW 2.6 km/h 5.1 km/h 89 % 0 mm
18:52 -14.1 °C -14.9 °C 34797.9 hPa SW 5.1 km/h 5.1 km/h 90 % 0 mm
19:02 -14.1 °C -14.9 °C 34797.9 hPa SSW 2.6 km/h 10.3 km/h 90 % 0 mm
19:07 -14.1 °C -14.9 °C 34808.1 hPa South 2.6 km/h 10.3 km/h 90 % 0 mm
19:12 -14.1 °C -14.8 °C 34808.1 hPa SSE 2.6 km/h 7.7 km/h 91 % 0 mm
19:17 -14.1 °C -14.9 °C 34808.1 hPa Calm   5.1 km/h 91 % 0 mm
19:22 -14.1 °C -14.9 °C 34808.1 hPa Calm   5.1 km/h 91 % 0 mm
19:27 -14.1 °C -14.9 °C 34808.1 hPa Calm   2.6 km/h 91 % 0 mm
19:32 -14.2 °C -14.9 °C 34808.1 hPa SE 2.6 km/h 2.6 km/h 91 % 0 mm
19:37 -14.2 °C -14.9 °C 34797.9 hPa SE 2.6 km/h 2.6 km/h 91 % 0 mm
19:42 -14.2 °C -15 °C 34797.9 hPa Calm   5.1 km/h 91 % 0 mm
19:47 -14.2 °C -15 °C 34797.9 hPa SSE 2.6 km/h 7.7 km/h 91 % 0 mm
19:52 -14.3 °C -14.9 °C 34808.1 hPa WSW 2.6 km/h 12.9 km/h 92 % 0 mm
19:57 -14.3 °C -14.9 °C 34808.1 hPa Calm   12.9 km/h 92 % 0 mm
20:02 -14.3 °C -14.9 °C 34808.1 hPa SW 2.6 km/h 12.9 km/h 92 % 0 mm
20:07 -14.3 °C -14.9 °C 34808.1 hPa Calm   10.3 km/h 92 % 0 mm
20:12 -14.3 °C -15 °C 34818.2 hPa Calm   5.1 km/h 92 % 0 mm
20:17 -14.3 °C -15 °C 34818.2 hPa Calm   5.1 km/h 92 % 0 mm
20:22 -14.3 °C -15 °C 34808.1 hPa SW 2.6 km/h 2.6 km/h 92 % 0 mm
20:32 -14.4 °C -15.1 °C 34808.1 hPa SSW 5.1 km/h 5.1 km/h 92 % 0 mm
20:37 -14.4 °C -15.1 °C 34808.1 hPa SW 5.1 km/h 5.1 km/h 92 % 0 mm
20:42 -14.4 °C -15.1 °C 34808.1 hPa SSW 2.6 km/h 7.7 km/h 92 % 0 mm
20:47 -14.5 °C -15.2 °C 34818.2 hPa Calm   7.7 km/h 92 % 0 mm
20:52 -14.5 °C -15.1 °C 34818.2 hPa SW 2.6 km/h 5.1 km/h 93 % 0 mm
20:57 -14.6 °C -15.1 °C 34818.2 hPa Calm   5.1 km/h 93 % 0 mm
21:02 -14.6 °C -15.1 °C 34818.2 hPa Calm   5.1 km/h 93 % 0 mm
21:12 -14.6 °C -15.2 °C 34818.2 hPa WSW 2.6 km/h 2.6 km/h 93 % 0 mm
21:17 -14.6 °C -15.2 °C 34808.1 hPa SW 2.6 km/h 5.1 km/h 93 % 0 mm
21:22 -14.6 °C -15.2 °C 34808.1 hPa WSW 2.6 km/h 10.3 km/h 93 % 0 mm
21:32 -14.6 °C -15.1 °C 34818.2 hPa WSW 5.1 km/h 10.3 km/h 93 % 0 mm
21:37 -14.5 °C -15.2 °C 34818.2 hPa West 5.1 km/h 10.3 km/h 92 % 0 mm
21:42 -14.5 °C -15.2 °C 34818.2 hPa WSW 10.3 km/h 10.3 km/h 92 % 0 mm
21:47 -14.4 °C -15.1 °C 34818.2 hPa WSW 5.1 km/h 15.6 km/h 92 % 0 mm
21:52 -14.4 °C -15.1 °C 34818.2 hPa Calm   15.6 km/h 92 % 0 mm
21:57 -14.4 °C -15.1 °C 34818.2 hPa West 2.6 km/h 15.6 km/h 92 % 0 mm
22:02 -14.4 °C -15.1 °C 34818.2 hPa West 2.6 km/h 12.9 km/h 92 % 0 mm
22:07 -14.4 °C -15.1 °C 34818.2 hPa Calm   10.3 km/h 92 % 0 mm
22:12 -14.4 °C -15.1 °C 34831.8 hPa West 2.6 km/h 10.3 km/h 92 % 0 mm
22:17 -14.4 °C -15.1 °C 34831.8 hPa Calm   5.1 km/h 92 % 0 mm
22:22 -14.4 °C -15.1 °C 34818.2 hPa Calm   5.1 km/h 92 % 0 mm
22:27 -14.4 °C -15.1 °C 34831.8 hPa Calm   2.6 km/h 92 % 0 mm
22:32 -14.4 °C -15.1 °C 34818.2 hPa Calm     92 % 0 mm
22:37 -14.4 °C -15.1 °C 34818.2 hPa Calm   2.6 km/h 92 % 0 mm
22:42 -14.4 °C -15.1 °C 34818.2 hPa Calm   2.6 km/h 92 % 0 mm
22:47 -14.4 °C -15.1 °C 34831.8 hPa Calm   2.6 km/h 92 % 0 mm
22:52 -14.4 °C -15.1 °C 34818.2 hPa Calm     92 % 0 mm
22:57 -14.4 °C -15.1 °C 34818.2 hPa Calm     92 % 0 mm
23:07 -14.5 °C -15.2 °C 34808.1 hPa SSW 5.1 km/h 5.1 km/h 92 % 0 mm
23:12 -14.6 °C -15.1 °C 34797.9 hPa SSW 7.7 km/h 10.3 km/h 93 % 0 mm
23:22 -14.7 °C -15.2 °C 34797.9 hPa SW 5.1 km/h 10.3 km/h 93 % 0 mm
23:27 -14.8 °C -15.3 °C 34808.1 hPa SW 5.1 km/h 10.3 km/h 93 % 0 mm
23:32 -14.8 °C -15.4 °C 34808.1 hPa SW 2.6 km/h 10.3 km/h 93 % 0 mm
23:37 -14.9 °C -15.4 °C 34808.1 hPa SSW 2.6 km/h 7.7 km/h 93 % 0 mm
23:42 -14.9 °C -15.4 °C 34808.1 hPa SW 5.1 km/h 7.7 km/h 94 % 0 mm
23:47 -15 °C -15.5 °C 34808.1 hPa SW 2.6 km/h 7.7 km/h 94 % 0 mm
23:52 -14.9 °C -15.4 °C 34808.1 hPa WSW 2.6 km/h 7.7 km/h 94 % 0 mm
23:57 -14.9 °C -15.4 °C 34808.1 hPa Calm   7.7 km/h 94 % 0 mm
Meteo18
Compliments of Weather Underground - 4 mb

Script developed by  Jim McMurry - jmcmurry@mwt.net Adapted for the template by  Wim van der Kuil - Leuven-Template.eu

You find our weather info also at:

European Weather Network

Weather Underground

Equipment we use:

Weather-station
Davis Vue

Weather-program
Meteobridge

Weather-server
Raspberry PI 2 B+

Provider
1 and 1

Davis Vue

Meteobridge

Raspberry PI 2 B+

1 and 1